sensor_id;sensor_type;location;lat;lon;timestamp;P1;durP1;ratioP1;P2;durP2;ratioP2
16159;SDS011;8185;57.818;15.224;2023-09-19T00:01:02;24.60;;;18.30;;
16159;SDS011;8185;57.818;15.224;2023-09-19T00:03:32;21.23;;;16.90;;
16159;SDS011;8185;57.818;15.224;2023-09-19T00:06:02;26.37;;;17.40;;
16159;SDS011;8185;57.818;15.224;2023-09-19T00:08:33;22.33;;;18.23;;
16159;SDS011;8185;57.818;15.224;2023-09-19T00:11:00;24.67;;;18.77;;
16159;SDS011;8185;57.818;15.224;2023-09-19T00:13:28;25.53;;;18.23;;
16159;SDS011;8185;57.818;15.224;2023-09-19T00:15:56;22.20;;;16.40;;
16159;SDS011;8185;57.818;15.224;2023-09-19T00:18:25;24.40;;;17.23;;
16159;SDS011;8185;57.818;15.224;2023-09-19T00:20:57;23.57;;;16.00;;
16159;SDS011;8185;57.818;15.224;2023-09-19T00:23:25;22.07;;;17.40;;
16159;SDS011;8185;57.818;15.224;2023-09-19T00:25:53;22.17;;;17.13;;
16159;SDS011;8185;57.818;15.224;2023-09-19T00:28:24;24.70;;;17.80;;
16159;SDS011;8185;57.818;15.224;2023-09-19T00:30:52;24.33;;;18.80;;
16159;SDS011;8185;57.818;15.224;2023-09-19T00:33:21;21.80;;;16.33;;
16159;SDS011;8185;57.818;15.224;2023-09-19T00:35:51;23.87;;;17.97;;
16159;SDS011;8185;57.818;15.224;2023-09-19T00:38:21;22.47;;;17.07;;
16159;SDS011;8185;57.818;15.224;2023-09-19T00:40:52;24.40;;;17.30;;
16159;SDS011;8185;57.818;15.224;2023-09-19T00:43:22;26.50;;;18.60;;
16159;SDS011;8185;57.818;15.224;2023-09-19T00:45:50;20.47;;;17.63;;
16159;SDS011;8185;57.818;15.224;2023-09-19T00:48:19;22.43;;;17.33;;
16159;SDS011;8185;57.818;15.224;2023-09-19T00:50:48;24.27;;;16.77;;
16159;SDS011;8185;57.818;15.224;2023-09-19T00:53:18;24.80;;;16.60;;
16159;SDS011;8185;57.818;15.224;2023-09-19T00:55:48;20.10;;;15.70;;
16159;SDS011;8185;57.818;15.224;2023-09-19T00:58:17;17.97;;;15.30;;
16159;SDS011;8185;57.818;15.224;2023-09-19T01:00:46;22.60;;;15.80;;
16159;SDS011;8185;57.818;15.224;2023-09-19T01:03:15;22.87;;;16.80;;
16159;SDS011;8185;57.818;15.224;2023-09-19T01:05:43;19.60;;;16.47;;
16159;SDS011;8185;57.818;15.224;2023-09-19T01:08:11;18.43;;;15.80;;
16159;SDS011;8185;57.818;15.224;2023-09-19T01:10:42;24.07;;;15.40;;
16159;SDS011;8185;57.818;15.224;2023-09-19T01:13:18;20.27;;;16.50;;
16159;SDS011;8185;57.818;15.224;2023-09-19T01:15:56;20.93;;;15.53;;
16159;SDS011;8185;57.818;15.224;2023-09-19T01:18:35;23.07;;;16.37;;
16159;SDS011;8185;57.818;15.224;2023-09-19T01:21:08;16.83;;;15.03;;
16159;SDS011;8185;57.818;15.224;2023-09-19T01:23:52;21.97;;;15.40;;
16159;SDS011;8185;57.818;15.224;2023-09-19T01:26:53;21.87;;;15.10;;
16159;SDS011;8185;57.818;15.224;2023-09-19T01:29:34;19.73;;;15.10;;
16159;SDS011;8185;57.818;15.224;2023-09-19T01:32:08;20.50;;;14.83;;
16159;SDS011;8185;57.818;15.224;2023-09-19T01:34:44;21.00;;;15.67;;
16159;SDS011;8185;57.818;15.224;2023-09-19T01:37:13;22.63;;;15.33;;
16159;SDS011;8185;57.818;15.224;2023-09-19T01:39:46;20.50;;;15.17;;
16159;SDS011;8185;57.818;15.224;2023-09-19T01:42:21;18.00;;;14.47;;
16159;SDS011;8185;57.818;15.224;2023-09-19T01:45:01;17.90;;;14.50;;
16159;SDS011;8185;57.818;15.224;2023-09-19T01:47:41;21.03;;;14.90;;
16159;SDS011;8185;57.818;15.224;2023-09-19T01:50:17;23.30;;;14.40;;
16159;SDS011;8185;57.818;15.224;2023-09-19T01:52:52;16.70;;;13.90;;
16159;SDS011;8185;57.818;15.224;2023-09-19T01:55:26;24.43;;;15.63;;
16159;SDS011;8185;57.818;15.224;2023-09-19T01:58:00;18.47;;;14.67;;
16159;SDS011;8185;57.818;15.224;2023-09-19T02:00:34;17.63;;;15.03;;
16159;SDS011;8185;57.818;15.224;2023-09-19T02:03:05;24.97;;;16.67;;
16159;SDS011;8185;57.818;15.224;2023-09-19T02:05:35;23.97;;;16.00;;
16159;SDS011;8185;57.818;15.224;2023-09-19T02:08:02;25.57;;;16.37;;
16159;SDS011;8185;57.818;15.224;2023-09-19T02:10:30;23.10;;;15.70;;
16159;SDS011;8185;57.818;15.224;2023-09-19T02:12:59;18.73;;;16.73;;
16159;SDS011;8185;57.818;15.224;2023-09-19T02:15:29;24.67;;;17.13;;
16159;SDS011;8185;57.818;15.224;2023-09-19T02:18:01;18.43;;;16.23;;
16159;SDS011;8185;57.818;15.224;2023-09-19T02:20:30;25.90;;;16.33;;
16159;SDS011;8185;57.818;15.224;2023-09-19T02:22:58;22.40;;;17.07;;
16159;SDS011;8185;57.818;15.224;2023-09-19T02:25:26;20.53;;;16.53;;
16159;SDS011;8185;57.818;15.224;2023-09-19T02:27:53;19.70;;;15.67;;
16159;SDS011;8185;57.818;15.224;2023-09-19T02:30:23;20.47;;;16.70;;
16159;SDS011;8185;57.818;15.224;2023-09-19T02:32:51;22.57;;;16.90;;
16159;SDS011;8185;57.818;15.224;2023-09-19T02:35:19;22.03;;;16.40;;
16159;SDS011;8185;57.818;15.224;2023-09-19T02:37:48;19.97;;;15.93;;
16159;SDS011;8185;57.818;15.224;2023-09-19T02:40:15;19.87;;;15.67;;
16159;SDS011;8185;57.818;15.224;2023-09-19T02:42:47;21.00;;;16.10;;
16159;SDS011;8185;57.818;15.224;2023-09-19T02:45:15;20.27;;;16.57;;
16159;SDS011;8185;57.818;15.224;2023-09-19T02:47:44;21.93;;;15.53;;
16159;SDS011;8185;57.818;15.224;2023-09-19T02:50:12;19.23;;;15.10;;
16159;SDS011;8185;57.818;15.224;2023-09-19T02:52:41;20.67;;;15.80;;
16159;SDS011;8185;57.818;15.224;2023-09-19T02:55:11;21.77;;;14.97;;
16159;SDS011;8185;57.818;15.224;2023-09-19T02:57:45;18.70;;;13.87;;
16159;SDS011;8185;57.818;15.224;2023-09-19T03:00:13;22.10;;;15.23;;
16159;SDS011;8185;57.818;15.224;2023-09-19T03:02:42;22.73;;;15.53;;
16159;SDS011;8185;57.818;15.224;2023-09-19T03:05:11;24.23;;;16.70;;
16159;SDS011;8185;57.818;15.224;2023-09-19T03:07:39;19.80;;;16.20;;
16159;SDS011;8185;57.818;15.224;2023-09-19T03:10:08;21.40;;;15.33;;
16159;SDS011;8185;57.818;15.224;2023-09-19T03:12:38;22.73;;;16.27;;
16159;SDS011;8185;57.818;15.224;2023-09-19T03:15:05;22.17;;;15.97;;
16159;SDS011;8185;57.818;15.224;2023-09-19T03:17:35;20.00;;;14.73;;
16159;SDS011;8185;57.818;15.224;2023-09-19T03:20:04;18.57;;;15.67;;
16159;SDS011;8185;57.818;15.224;2023-09-19T03:22:34;18.60;;;15.47;;
16159;SDS011;8185;57.818;15.224;2023-09-19T03:25:01;18.60;;;16.27;;
16159;SDS011;8185;57.818;15.224;2023-09-19T03:27:34;21.77;;;14.67;;
16159;SDS011;8185;57.818;15.224;2023-09-19T03:30:02;21.43;;;15.77;;
16159;SDS011;8185;57.818;15.224;2023-09-19T03:32:34;24.73;;;14.70;;
16159;SDS011;8185;57.818;15.224;2023-09-19T03:35:01;18.10;;;14.77;;
16159;SDS011;8185;57.818;15.224;2023-09-19T03:37:30;20.37;;;15.07;;
16159;SDS011;8185;57.818;15.224;2023-09-19T03:39:58;20.73;;;14.13;;
16159;SDS011;8185;57.818;15.224;2023-09-19T03:42:30;20.00;;;15.40;;
16159;SDS011;8185;57.818;15.224;2023-09-19T03:44:58;21.37;;;15.13;;
16159;SDS011;8185;57.818;15.224;2023-09-19T03:47:30;19.77;;;14.27;;
16159;SDS011;8185;57.818;15.224;2023-09-19T03:49:58;21.07;;;15.07;;
16159;SDS011;8185;57.818;15.224;2023-09-19T03:52:26;19.97;;;15.60;;
16159;SDS011;8185;57.818;15.224;2023-09-19T03:54:53;19.80;;;15.80;;
16159;SDS011;8185;57.818;15.224;2023-09-19T03:57:21;21.97;;;15.73;;
16159;SDS011;8185;57.818;15.224;2023-09-19T03:59:49;18.40;;;15.23;;
16159;SDS011;8185;57.818;15.224;2023-09-19T04:02:20;19.17;;;14.83;;
16159;SDS011;8185;57.818;15.224;2023-09-19T04:04:49;22.87;;;15.70;;
16159;SDS011;8185;57.818;15.224;2023-09-19T04:07:18;20.80;;;15.17;;
16159;SDS011;8185;57.818;15.224;2023-09-19T04:09:47;20.43;;;15.10;;
16159;SDS011;8185;57.818;15.224;2023-09-19T04:12:15;20.90;;;15.30;;
16159;SDS011;8185;57.818;15.224;2023-09-19T04:14:43;19.70;;;14.93;;
16159;SDS011;8185;57.818;15.224;2023-09-19T04:17:10;21.60;;;16.00;;
16159;SDS011;8185;57.818;15.224;2023-09-19T04:19:40;17.70;;;14.67;;
16159;SDS011;8185;57.818;15.224;2023-09-19T04:22:07;18.37;;;14.73;;
16159;SDS011;8185;57.818;15.224;2023-09-19T04:24:36;21.77;;;15.97;;
16159;SDS011;8185;57.818;15.224;2023-09-19T04:27:04;19.47;;;16.70;;
16159;SDS011;8185;57.818;15.224;2023-09-19T04:29:32;22.80;;;15.13;;
16159;SDS011;8185;57.818;15.224;2023-09-19T04:32:00;20.37;;;15.53;;
16159;SDS011;8185;57.818;15.224;2023-09-19T04:34:29;18.57;;;14.27;;
16159;SDS011;8185;57.818;15.224;2023-09-19T04:36:58;18.40;;;14.67;;
16159;SDS011;8185;57.818;15.224;2023-09-19T04:39:27;16.77;;;14.97;;
16159;SDS011;8185;57.818;15.224;2023-09-19T04:41:54;16.90;;;14.17;;
16159;SDS011;8185;57.818;15.224;2023-09-19T04:44:23;16.27;;;12.93;;
16159;SDS011;8185;57.818;15.224;2023-09-19T04:46:50;17.17;;;13.27;;
16159;SDS011;8185;57.818;15.224;2023-09-19T04:49:18;13.70;;;12.40;;
16159;SDS011;8185;57.818;15.224;2023-09-19T04:51:45;17.03;;;13.83;;
16159;SDS011;8185;57.818;15.224;2023-09-19T04:54:14;18.87;;;12.03;;
16159;SDS011;8185;57.818;15.224;2023-09-19T04:56:43;15.73;;;12.83;;
16159;SDS011;8185;57.818;15.224;2023-09-19T04:59:11;13.13;;;11.37;;
16159;SDS011;8185;57.818;15.224;2023-09-19T05:01:40;14.73;;;11.63;;
16159;SDS011;8185;57.818;15.224;2023-09-19T05:04:08;16.37;;;12.10;;
16159;SDS011;8185;57.818;15.224;2023-09-19T05:06:35;12.93;;;10.77;;
16159;SDS011;8185;57.818;15.224;2023-09-19T05:09:03;11.97;;;10.60;;
16159;SDS011;8185;57.818;15.224;2023-09-19T05:11:32;15.60;;;9.93;;
16159;SDS011;8185;57.818;15.224;2023-09-19T05:14:00;10.30;;;9.30;;
16159;SDS011;8185;57.818;15.224;2023-09-19T05:16:29;11.00;;;8.93;;
16159;SDS011;8185;57.818;15.224;2023-09-19T05:18:58;10.53;;;8.80;;
16159;SDS011;8185;57.818;15.224;2023-09-19T05:21:26;9.77;;;6.87;;
16159;SDS011;8185;57.818;15.224;2023-09-19T05:23:55;8.67;;;7.10;;
16159;SDS011;8185;57.818;15.224;2023-09-19T05:26:23;8.23;;;7.30;;
16159;SDS011;8185;57.818;15.224;2023-09-19T05:28:51;10.20;;;6.17;;
16159;SDS011;8185;57.818;15.224;2023-09-19T05:31:19;9.07;;;6.50;;
16159;SDS011;8185;57.818;15.224;2023-09-19T05:33:46;12.30;;;6.20;;
16159;SDS011;8185;57.818;15.224;2023-09-19T05:36:15;7.93;;;5.93;;
16159;SDS011;8185;57.818;15.224;2023-09-19T05:38:42;6.43;;;5.20;;
16159;SDS011;8185;57.818;15.224;2023-09-19T05:41:10;6.27;;;5.07;;
16159;SDS011;8185;57.818;15.224;2023-09-19T05:43:39;5.27;;;4.77;;
16159;SDS011;8185;57.818;15.224;2023-09-19T05:46:08;6.60;;;4.97;;
16159;SDS011;8185;57.818;15.224;2023-09-19T05:48:36;6.40;;;4.87;;
16159;SDS011;8185;57.818;15.224;2023-09-19T05:51:05;7.93;;;4.47;;
16159;SDS011;8185;57.818;15.224;2023-09-19T05:53:32;6.53;;;4.57;;
16159;SDS011;8185;57.818;15.224;2023-09-19T05:56:00;7.23;;;4.90;;
16159;SDS011;8185;57.818;15.224;2023-09-19T05:58:28;5.13;;;4.33;;
16159;SDS011;8185;57.818;15.224;2023-09-19T06:00:55;5.43;;;4.50;;
16159;SDS011;8185;57.818;15.224;2023-09-19T06:03:24;6.10;;;4.37;;
16159;SDS011;8185;57.818;15.224;2023-09-19T06:05:52;8.90;;;4.90;;
16159;SDS011;8185;57.818;15.224;2023-09-19T06:08:22;5.97;;;4.47;;
16159;SDS011;8185;57.818;15.224;2023-09-19T06:10:51;5.80;;;4.10;;
16159;SDS011;8185;57.818;15.224;2023-09-19T06:13:19;6.97;;;3.63;;
16159;SDS011;8185;57.818;15.224;2023-09-19T06:15:46;5.70;;;4.30;;
16159;SDS011;8185;57.818;15.224;2023-09-19T06:18:14;4.17;;;3.53;;
16159;SDS011;8185;57.818;15.224;2023-09-19T06:20:46;4.23;;;3.60;;
16159;SDS011;8185;57.818;15.224;2023-09-19T06:23:16;4.90;;;3.30;;
16159;SDS011;8185;57.818;15.224;2023-09-19T06:25:45;5.57;;;3.30;;
16159;SDS011;8185;57.818;15.224;2023-09-19T06:28:13;5.13;;;3.53;;
16159;SDS011;8185;57.818;15.224;2023-09-19T06:30:43;6.63;;;3.27;;
16159;SDS011;8185;57.818;15.224;2023-09-19T06:33:11;3.90;;;2.87;;
16159;SDS011;8185;57.818;15.224;2023-09-19T06:35:39;5.67;;;3.10;;
16159;SDS011;8185;57.818;15.224;2023-09-19T06:38:08;7.53;;;3.57;;
16159;SDS011;8185;57.818;15.224;2023-09-19T06:40:38;3.33;;;2.80;;
16159;SDS011;8185;57.818;15.224;2023-09-19T06:43:09;4.93;;;2.90;;
16159;SDS011;8185;57.818;15.224;2023-09-19T06:45:37;4.83;;;2.80;;
16159;SDS011;8185;57.818;15.224;2023-09-19T06:48:05;3.07;;;2.60;;
16159;SDS011;8185;57.818;15.224;2023-09-19T06:50:32;5.47;;;2.90;;
16159;SDS011;8185;57.818;15.224;2023-09-19T06:53:01;5.00;;;2.50;;
16159;SDS011;8185;57.818;15.224;2023-09-19T06:55:30;2.63;;;2.03;;
16159;SDS011;8185;57.818;15.224;2023-09-19T06:57:58;5.77;;;2.30;;
16159;SDS011;8185;57.818;15.224;2023-09-19T07:00:25;4.63;;;2.37;;
16159;SDS011;8185;57.818;15.224;2023-09-19T07:02:56;4.30;;;2.40;;
16159;SDS011;8185;57.818;15.224;2023-09-19T07:05:26;5.80;;;2.20;;
16159;SDS011;8185;57.818;15.224;2023-09-19T07:07:54;3.23;;;1.73;;
16159;SDS011;8185;57.818;15.224;2023-09-19T07:10:24;3.17;;;2.13;;
16159;SDS011;8185;57.818;15.224;2023-09-19T07:12:57;5.03;;;1.70;;
16159;SDS011;8185;57.818;15.224;2023-09-19T07:15:25;3.23;;;1.60;;
16159;SDS011;8185;57.818;15.224;2023-09-19T07:17:53;3.47;;;1.97;;
16159;SDS011;8185;57.818;15.224;2023-09-19T07:20:21;2.30;;;1.43;;
16159;SDS011;8185;57.818;15.224;2023-09-19T07:22:51;6.17;;;1.90;;
16159;SDS011;8185;57.818;15.224;2023-09-19T07:25:20;2.73;;;1.00;;
16159;SDS011;8185;57.818;15.224;2023-09-19T07:27:48;2.30;;;1.30;;
16159;SDS011;8185;57.818;15.224;2023-09-19T07:30:18;1.90;;;1.37;;
16159;SDS011;8185;57.818;15.224;2023-09-19T07:32:45;2.77;;;1.37;;
16159;SDS011;8185;57.818;15.224;2023-09-19T07:35:13;3.40;;;1.50;;
16159;SDS011;8185;57.818;15.224;2023-09-19T07:37:41;8.80;;;6.63;;
16159;SDS011;8185;57.818;15.224;2023-09-19T07:40:09;6.13;;;3.30;;
16159;SDS011;8185;57.818;15.224;2023-09-19T07:42:38;2.73;;;2.00;;
16159;SDS011;8185;57.818;15.224;2023-09-19T07:45:06;3.60;;;1.33;;
16159;SDS011;8185;57.818;15.224;2023-09-19T07:47:36;0.40;;;0.00;;
16159;SDS011;8185;57.818;15.224;2023-09-19T07:50:04;0.20;;;0.00;;
16159;SDS011;8185;57.818;15.224;2023-09-19T07:55:00;1.80;;;0.03;;
16159;SDS011;8185;57.818;15.224;2023-09-19T07:57:35;1.13;;;0.00;;
16159;SDS011;8185;57.818;15.224;2023-09-19T08:00:03;0.30;;;0.00;;
16159;SDS011;8185;57.818;15.224;2023-09-19T08:02:34;2.03;;;0.20;;
16159;SDS011;8185;57.818;15.224;2023-09-19T08:05:04;0.87;;;0.07;;
16159;SDS011;8185;57.818;15.224;2023-09-19T08:07:35;0.37;;;0.10;;
16159;SDS011;8185;57.818;15.224;2023-09-19T08:10:03;0.97;;;0.10;;
16159;SDS011;8185;57.818;15.224;2023-09-19T08:12:33;1.47;;;0.30;;
16159;SDS011;8185;57.818;15.224;2023-09-19T08:15:02;0.93;;;0.20;;
16159;SDS011;8185;57.818;15.224;2023-09-19T08:17:33;0.63;;;0.10;;
16159;SDS011;8185;57.818;15.224;2023-09-19T08:20:02;0.20;;;0.00;;
16159;SDS011;8185;57.818;15.224;2023-09-19T08:22:31;0.40;;;0.00;;
16159;SDS011;8185;57.818;15.224;2023-09-19T08:24:58;1.30;;;0.00;;
16159;SDS011;8185;57.818;15.224;2023-09-19T08:27:30;1.20;;;0.00;;
16159;SDS011;8185;57.818;15.224;2023-09-19T08:29:57;0.70;;;0.03;;
16159;SDS011;8185;57.818;15.224;2023-09-19T08:32:25;1.20;;;0.10;;
16159;SDS011;8185;57.818;15.224;2023-09-19T08:34:54;0.80;;;0.10;;
16159;SDS011;8185;57.818;15.224;2023-09-19T08:37:21;1.63;;;0.10;;
16159;SDS011;8185;57.818;15.224;2023-09-19T08:39:49;0.60;;;0.10;;
16159;SDS011;8185;57.818;15.224;2023-09-19T08:42:16;0.60;;;0.10;;
16159;SDS011;8185;57.818;15.224;2023-09-19T08:44:46;1.03;;;0.17;;
16159;SDS011;8185;57.818;15.224;2023-09-19T08:47:14;1.23;;;0.10;;
16159;SDS011;8185;57.818;15.224;2023-09-19T08:49:47;1.50;;;0.10;;
16159;SDS011;8185;57.818;15.224;2023-09-19T08:52:27;0.53;;;0.10;;
16159;SDS011;8185;57.818;15.224;2023-09-19T08:55:01;0.90;;;0.20;;
16159;SDS011;8185;57.818;15.224;2023-09-19T08:57:36;5.20;;;0.50;;
16159;SDS011;8185;57.818;15.224;2023-09-19T09:00:07;2.13;;;0.27;;
16159;SDS011;8185;57.818;15.224;2023-09-19T09:02:37;3.03;;;0.50;;
16159;SDS011;8185;57.818;15.224;2023-09-19T09:05:06;2.93;;;0.77;;
16159;SDS011;8185;57.818;15.224;2023-09-19T09:07:37;3.13;;;0.90;;
16159;SDS011;8185;57.818;15.224;2023-09-19T09:10:06;2.30;;;1.03;;
16159;SDS011;8185;57.818;15.224;2023-09-19T09:12:34;2.73;;;1.37;;
16159;SDS011;8185;57.818;15.224;2023-09-19T09:15:05;3.80;;;0.90;;
16159;SDS011;8185;57.818;15.224;2023-09-19T09:17:34;4.57;;;1.00;;
16159;SDS011;8185;57.818;15.224;2023-09-19T09:20:01;2.70;;;1.10;;
16159;SDS011;8185;57.818;15.224;2023-09-19T09:22:33;1.40;;;0.80;;
16159;SDS011;8185;57.818;15.224;2023-09-19T09:25:03;1.97;;;0.97;;
16159;SDS011;8185;57.818;15.224;2023-09-19T09:27:31;3.50;;;0.90;;
16159;SDS011;8185;57.818;15.224;2023-09-19T09:29:59;2.00;;;0.90;;
16159;SDS011;8185;57.818;15.224;2023-09-19T09:32:27;3.63;;;1.30;;
16159;SDS011;8185;57.818;15.224;2023-09-19T09:34:59;5.10;;;1.40;;
16159;SDS011;8185;57.818;15.224;2023-09-19T09:37:29;8.63;;;5.67;;
16159;SDS011;8185;57.818;15.224;2023-09-19T09:39:57;7.80;;;6.20;;
16159;SDS011;8185;57.818;15.224;2023-09-19T09:42:46;8.53;;;5.13;;
16159;SDS011;8185;57.818;15.224;2023-09-19T09:45:18;3.47;;;2.07;;
16159;SDS011;8185;57.818;15.224;2023-09-19T09:47:54;4.90;;;1.30;;
16159;SDS011;8185;57.818;15.224;2023-09-19T09:50:24;8.60;;;7.53;;
16159;SDS011;8185;57.818;15.224;2023-09-19T09:52:54;4.70;;;1.53;;
16159;SDS011;8185;57.818;15.224;2023-09-19T09:58:26;7.17;;;2.33;;
16159;SDS011;8185;57.818;15.224;2023-09-19T10:00:58;8.83;;;7.93;;
16159;SDS011;8185;57.818;15.224;2023-09-19T10:03:34;5.30;;;4.23;;
16159;SDS011;8185;57.818;15.224;2023-09-19T10:06:06;4.83;;;3.30;;
16159;SDS011;8185;57.818;15.224;2023-09-19T10:09:03;4.77;;;1.30;;
16159;SDS011;8185;57.818;15.224;2023-09-19T10:11:43;6.70;;;1.73;;
16159;SDS011;8185;57.818;15.224;2023-09-19T10:14:14;4.30;;;3.27;;
16159;SDS011;8185;57.818;15.224;2023-09-19T10:16:46;5.33;;;1.70;;
16159;SDS011;8185;57.818;15.224;2023-09-19T10:19:15;3.97;;;1.30;;
16159;SDS011;8185;57.818;15.224;2023-09-19T10:21:50;2.70;;;1.23;;
16159;SDS011;8185;57.818;15.224;2023-09-19T10:24:20;4.93;;;2.23;;
16159;SDS011;8185;57.818;15.224;2023-09-19T10:26:50;4.63;;;1.67;;
16159;SDS011;8185;57.818;15.224;2023-09-19T10:29:22;4.13;;;1.53;;
16159;SDS011;8185;57.818;15.224;2023-09-19T10:31:52;2.97;;;1.30;;
16159;SDS011;8185;57.818;15.224;2023-09-19T10:34:20;3.17;;;1.87;;
16159;SDS011;8185;57.818;15.224;2023-09-19T10:36:50;3.73;;;1.27;;
16159;SDS011;8185;57.818;15.224;2023-09-19T10:39:20;3.13;;;1.20;;
16159;SDS011;8185;57.818;15.224;2023-09-19T10:41:50;2.83;;;1.43;;
16159;SDS011;8185;57.818;15.224;2023-09-19T10:44:23;5.37;;;1.30;;
16159;SDS011;8185;57.818;15.224;2023-09-19T10:46:51;2.80;;;0.90;;
16159;SDS011;8185;57.818;15.224;2023-09-19T10:49:19;3.90;;;1.10;;
16159;SDS011;8185;57.818;15.224;2023-09-19T10:51:49;3.27;;;1.00;;
16159;SDS011;8185;57.818;15.224;2023-09-19T10:54:21;5.77;;;1.87;;
16159;SDS011;8185;57.818;15.224;2023-09-19T10:56:53;4.90;;;1.20;;
16159;SDS011;8185;57.818;15.224;2023-09-19T10:59:25;6.37;;;3.30;;
16159;SDS011;8185;57.818;15.224;2023-09-19T11:02:00;2.33;;;1.03;;
16159;SDS011;8185;57.818;15.224;2023-09-19T11:04:43;8.40;;;3.70;;
16159;SDS011;8185;57.818;15.224;2023-09-19T11:07:14;3.37;;;1.10;;
16159;SDS011;8185;57.818;15.224;2023-09-19T11:09:45;6.33;;;3.57;;
16159;SDS011;8185;57.818;15.224;2023-09-19T11:12:12;4.30;;;1.10;;
16159;SDS011;8185;57.818;15.224;2023-09-19T11:24:28;6.37;;;4.97;;
16159;SDS011;8185;57.818;15.224;2023-09-19T11:27:09;4.00;;;1.00;;
16159;SDS011;8185;57.818;15.224;2023-09-19T11:29:39;10.00;;;1.90;;
16159;SDS011;8185;57.818;15.224;2023-09-19T11:32:07;2.87;;;1.50;;
16159;SDS011;8185;57.818;15.224;2023-09-19T11:34:40;3.10;;;1.83;;
16159;SDS011;8185;57.818;15.224;2023-09-19T11:40:44;8.43;;;6.37;;
16159;SDS011;8185;57.818;15.224;2023-09-19T11:43:32;6.83;;;2.83;;
16159;SDS011;8185;57.818;15.224;2023-09-19T11:46:02;4.87;;;1.53;;
16159;SDS011;8185;57.818;15.224;2023-09-19T11:48:30;4.50;;;1.67;;
16159;SDS011;8185;57.818;15.224;2023-09-19T11:51:15;4.67;;;1.23;;
16159;SDS011;8185;57.818;15.224;2023-09-19T11:53:48;6.13;;;3.87;;
16159;SDS011;8185;57.818;15.224;2023-09-19T11:56:17;6.30;;;1.20;;
16159;SDS011;8185;57.818;15.224;2023-09-19T11:58:45;3.00;;;1.67;;
16159;SDS011;8185;57.818;15.224;2023-09-19T12:01:16;5.57;;;2.63;;
16159;SDS011;8185;57.818;15.224;2023-09-19T12:03:52;6.67;;;1.50;;
16159;SDS011;8185;57.818;15.224;2023-09-19T12:06:24;5.90;;;2.80;;
16159;SDS011;8185;57.818;15.224;2023-09-19T12:08:53;6.10;;;2.73;;
16159;SDS011;8185;57.818;15.224;2023-09-19T12:11:22;2.27;;;1.37;;
16159;SDS011;8185;57.818;15.224;2023-09-19T12:13:52;4.20;;;1.20;;
16159;SDS011;8185;57.818;15.224;2023-09-19T12:16:22;4.70;;;1.40;;
16159;SDS011;8185;57.818;15.224;2023-09-19T12:18:50;5.37;;;1.43;;
16159;SDS011;8185;57.818;15.224;2023-09-19T12:21:28;6.03;;;1.30;;
16159;SDS011;8185;57.818;15.224;2023-09-19T12:24:07;5.70;;;2.43;;
16159;SDS011;8185;57.818;15.224;2023-09-19T12:26:42;2.43;;;1.00;;
16159;SDS011;8185;57.818;15.224;2023-09-19T12:29:14;4.57;;;1.83;;
16159;SDS011;8185;57.818;15.224;2023-09-19T12:31:53;5.73;;;1.07;;
16159;SDS011;8185;57.818;15.224;2023-09-19T12:34:26;3.13;;;1.00;;
16159;SDS011;8185;57.818;15.224;2023-09-19T12:37:05;4.83;;;2.77;;
16159;SDS011;8185;57.818;15.224;2023-09-19T12:39:46;4.57;;;3.60;;
16159;SDS011;8185;57.818;15.224;2023-09-19T12:42:17;7.80;;;4.73;;
16159;SDS011;8185;57.818;15.224;2023-09-19T12:44:46;3.23;;;1.10;;
16159;SDS011;8185;57.818;15.224;2023-09-19T12:47:17;3.30;;;1.03;;
16159;SDS011;8185;57.818;15.224;2023-09-19T12:52:52;3.97;;;0.90;;
16159;SDS011;8185;57.818;15.224;2023-09-19T12:55:22;4.00;;;0.80;;
16159;SDS011;8185;57.818;15.224;2023-09-19T12:58:00;6.00;;;3.20;;
16159;SDS011;8185;57.818;15.224;2023-09-19T13:00:36;2.50;;;1.50;;
16159;SDS011;8185;57.818;15.224;2023-09-19T13:03:11;1.93;;;0.60;;
16159;SDS011;8185;57.818;15.224;2023-09-19T13:05:51;3.63;;;1.87;;
16159;SDS011;8185;57.818;15.224;2023-09-19T13:08:23;3.77;;;0.80;;
16159;SDS011;8185;57.818;15.224;2023-09-19T13:11:03;2.47;;;0.97;;
16159;SDS011;8185;57.818;15.224;2023-09-19T13:13:35;2.00;;;0.67;;
16159;SDS011;8185;57.818;15.224;2023-09-19T13:16:06;2.97;;;0.67;;
16159;SDS011;8185;57.818;15.224;2023-09-19T13:18:47;2.17;;;0.90;;
16159;SDS011;8185;57.818;15.224;2023-09-19T13:21:27;2.83;;;2.10;;
16159;SDS011;8185;57.818;15.224;2023-09-19T13:24:19;4.07;;;1.20;;
16159;SDS011;8185;57.818;15.224;2023-09-19T13:26:48;3.27;;;2.10;;
16159;SDS011;8185;57.818;15.224;2023-09-19T13:29:15;3.20;;;2.77;;
16159;SDS011;8185;57.818;15.224;2023-09-19T13:31:45;2.40;;;2.10;;
16159;SDS011;8185;57.818;15.224;2023-09-19T13:34:13;3.97;;;1.10;;
16159;SDS011;8185;57.818;15.224;2023-09-19T13:36:42;4.73;;;3.87;;
16159;SDS011;8185;57.818;15.224;2023-09-19T13:39:10;4.50;;;2.70;;
16159;SDS011;8185;57.818;15.224;2023-09-19T13:41:42;3.13;;;2.17;;
16159;SDS011;8185;57.818;15.224;2023-09-19T13:44:11;6.70;;;6.00;;
16159;SDS011;8185;57.818;15.224;2023-09-19T13:46:39;2.73;;;1.03;;
16159;SDS011;8185;57.818;15.224;2023-09-19T13:49:11;4.23;;;1.70;;
16159;SDS011;8185;57.818;15.224;2023-09-19T13:51:38;3.17;;;1.53;;
16159;SDS011;8185;57.818;15.224;2023-09-19T13:54:09;5.67;;;4.20;;
16159;SDS011;8185;57.818;15.224;2023-09-19T13:56:37;5.47;;;3.33;;
16159;SDS011;8185;57.818;15.224;2023-09-19T13:59:06;1.77;;;0.80;;
16159;SDS011;8185;57.818;15.224;2023-09-19T14:01:34;4.10;;;1.73;;
16159;SDS011;8185;57.818;15.224;2023-09-19T14:04:02;3.17;;;1.37;;
16159;SDS011;8185;57.818;15.224;2023-09-19T14:06:29;5.80;;;4.57;;
16159;SDS011;8185;57.818;15.224;2023-09-19T14:08:58;2.70;;;0.93;;
16159;SDS011;8185;57.818;15.224;2023-09-19T14:11:26;2.73;;;0.70;;
16159;SDS011;8185;57.818;15.224;2023-09-19T14:13:54;4.40;;;2.77;;
16159;SDS011;8185;57.818;15.224;2023-09-19T14:16:23;3.73;;;1.13;;
16159;SDS011;8185;57.818;15.224;2023-09-19T14:18:55;3.50;;;0.80;;
16159;SDS011;8185;57.818;15.224;2023-09-19T14:21:23;4.50;;;1.00;;
16159;SDS011;8185;57.818;15.224;2023-09-19T14:23:50;2.87;;;1.10;;
16159;SDS011;8185;57.818;15.224;2023-09-19T14:26:20;3.87;;;2.00;;
16159;SDS011;8185;57.818;15.224;2023-09-19T14:28:48;6.50;;;1.67;;
16159;SDS011;8185;57.818;15.224;2023-09-19T14:31:16;5.07;;;2.80;;
16159;SDS011;8185;57.818;15.224;2023-09-19T14:33:45;2.67;;;2.03;;
16159;SDS011;8185;57.818;15.224;2023-09-19T14:36:12;4.00;;;0.90;;
16159;SDS011;8185;57.818;15.224;2023-09-19T14:38:40;4.93;;;0.83;;
16159;SDS011;8185;57.818;15.224;2023-09-19T14:41:07;5.37;;;2.83;;
16159;SDS011;8185;57.818;15.224;2023-09-19T14:43:35;5.00;;;3.50;;
16159;SDS011;8185;57.818;15.224;2023-09-19T14:46:03;2.33;;;0.80;;
16159;SDS011;8185;57.818;15.224;2023-09-19T14:48:33;4.13;;;1.70;;
16159;SDS011;8185;57.818;15.224;2023-09-19T14:51:05;2.60;;;0.80;;
16159;SDS011;8185;57.818;15.224;2023-09-19T14:53:34;9.20;;;0.90;;
16159;SDS011;8185;57.818;15.224;2023-09-19T14:56:03;3.40;;;1.47;;
16159;SDS011;8185;57.818;15.224;2023-09-19T14:58:31;1.80;;;0.67;;
16159;SDS011;8185;57.818;15.224;2023-09-19T15:01:05;4.00;;;0.80;;
16159;SDS011;8185;57.818;15.224;2023-09-19T15:03:35;4.20;;;1.13;;
16159;SDS011;8185;57.818;15.224;2023-09-19T15:06:07;1.97;;;0.70;;
16159;SDS011;8185;57.818;15.224;2023-09-19T15:08:36;3.73;;;0.57;;
16159;SDS011;8185;57.818;15.224;2023-09-19T15:11:06;1.53;;;0.60;;
16159;SDS011;8185;57.818;15.224;2023-09-19T15:13:33;2.43;;;0.80;;
16159;SDS011;8185;57.818;15.224;2023-09-19T15:16:01;2.13;;;0.57;;
16159;SDS011;8185;57.818;15.224;2023-09-19T15:18:30;2.50;;;0.73;;